createdAt,value
2022-10-05T00:01:03.938Z,99574.63
2022-10-05T00:03:35.521Z,99554.97
2022-10-05T00:06:02.578Z,99542.44
2022-10-05T00:08:35.484Z,99474.22
2022-10-05T00:11:02.526Z,99501.00
2022-10-05T00:13:31.193Z,99519.91
2022-10-05T00:16:16.391Z,99517.69
2022-10-05T00:18:47.547Z,99469.88
2022-10-05T00:21:18.832Z,99464.81
2022-10-05T00:23:45.939Z,99397.66
2022-10-05T00:26:21.078Z,99431.25
2022-10-05T00:28:48.078Z,99408.56
2022-10-05T00:31:21.460Z,99447.41
2022-10-05T00:33:48.271Z,99408.19
2022-10-05T00:36:15.285Z,99377.19
2022-10-05T00:38:42.877Z,99404.47
2022-10-05T00:41:54.112Z,99400.59
2022-10-05T00:44:29.516Z,99388.41
2022-10-05T00:47:43.662Z,99364.53
2022-10-05T00:50:44.459Z,99345.16
2022-10-05T00:53:32.297Z,99347.81
2022-10-05T00:56:20.089Z,99343.63
2022-10-05T00:58:52.707Z,99344.91
2022-10-05T01:01:47.247Z,99334.53
2022-10-05T01:04:32.544Z,99268.56
2022-10-05T01:07:02.230Z,99308.63
2022-10-05T01:09:41.020Z,99295.50
2022-10-05T01:12:36.148Z,99293.69
2022-10-05T01:15:12.297Z,99288.03
2022-10-05T01:18:06.601Z,99296.41
2022-10-05T01:21:05.287Z,99287.78
2022-10-05T01:23:47.445Z,99259.34
2022-10-05T01:26:41.768Z,99208.63
2022-10-05T01:29:31.499Z,99254.31
2022-10-05T01:32:13.411Z,99243.78
2022-10-05T01:34:43.404Z,99235.94
2022-10-05T01:37:22.803Z,99230.06
2022-10-05T01:40:12.115Z,99204.97
2022-10-05T01:43:25.203Z,99194.66
2022-10-05T01:46:23.443Z,99158.78
2022-10-05T01:48:59.326Z,99159.66
2022-10-05T01:51:40.914Z,99134.19
2022-10-05T01:54:52.620Z,99127.97
2022-10-05T01:57:56.636Z,99116.28
2022-10-05T02:00:23.577Z,99117.22
2022-10-05T02:02:56.149Z,99100.72
2022-10-05T02:05:52.832Z,99087.47
2022-10-05T02:08:31.261Z,99067.00
2022-10-05T02:11:07.351Z,99053.94
2022-10-05T02:13:44.305Z,99039.22
2022-10-05T02:16:34.362Z,99026.06
2022-10-05T02:19:42.344Z,99018.66
2022-10-05T02:22:15.814Z,99014.13
2022-10-05T02:24:48.310Z,98984.97
2022-10-05T02:27:24.518Z,98990.59
2022-10-05T02:29:56.874Z,98974.44
2022-10-05T02:32:27.328Z,98981.03
2022-10-05T02:35:01.693Z,98958.88
2022-10-05T02:37:34.839Z,98896.53
2022-10-05T02:40:08.948Z,98946.41
2022-10-05T02:43:08.125Z,98959.56
2022-10-05T02:45:56.086Z,98926.31
2022-10-05T02:48:58.866Z,98906.59
2022-10-05T02:51:40.676Z,98907.19
2022-10-05T02:54:25.786Z,98907.47
2022-10-05T02:57:06.778Z,98891.50
2022-10-05T02:59:33.530Z,98880.69
2022-10-05T03:02:18.211Z,98858.56
2022-10-05T03:05:30.913Z,98834.56
2022-10-05T03:08:14.796Z,98850.25
2022-10-05T03:10:59.533Z,98864.41
2022-10-05T03:13:45.338Z,98839.16
2022-10-05T03:16:34.338Z,98854.50
2022-10-05T03:19:19.745Z,98852.38
2022-10-05T03:22:01.248Z,98851.91
2022-10-05T03:24:36.369Z,98846.41
2022-10-05T03:27:24.881Z,98841.03
2022-10-05T03:30:18.395Z,98848.59
2022-10-05T03:33:21.827Z,98845.94
2022-10-05T03:35:48.416Z,98844.97
2022-10-05T03:38:21.938Z,98843.03
2022-10-05T03:41:06.376Z,98788.34
2022-10-05T03:43:59.485Z,98783.56
2022-10-05T03:47:03.588Z,98837.47
2022-10-05T03:49:45.496Z,98842.63
2022-10-05T03:52:15.158Z,98826.66
2022-10-05T03:54:48.629Z,98803.56
2022-10-05T03:57:21.898Z,98819.25
2022-10-05T03:59:51.588Z,98811.09
2022-10-05T04:02:27.387Z,98770.63
2022-10-05T04:05:13.046Z,98810.91
2022-10-05T04:07:46.971Z,98800.03
2022-10-05T04:10:21.900Z,98781.09
2022-10-05T04:13:09.265Z,98763.25
2022-10-05T04:15:41.937Z,98792.03
2022-10-05T04:18:25.647Z,98782.56
2022-10-05T04:20:59.032Z,98773.38
2022-10-05T04:23:48.556Z,98790.97
2022-10-05T04:26:21.963Z,98733.53
2022-10-05T04:29:18.688Z,98788.97
2022-10-05T04:31:45.388Z,98801.16
2022-10-05T04:34:30.823Z,98795.78
2022-10-05T04:37:07.006Z,98792.50
2022-10-05T04:40:08.607Z,98790.06
2022-10-05T04:42:48.309Z,98798.41
2022-10-05T04:45:45.527Z,98793.72
2022-10-05T04:48:27.275Z,98806.06
2022-10-05T04:51:14.193Z,98816.09
2022-10-05T04:53:51.428Z,98817.66
2022-10-05T04:56:36.343Z,98829.38
2022-10-05T04:59:25.002Z,98838.72
2022-10-05T05:02:10.116Z,98832.75
2022-10-05T05:04:59.639Z,98837.19
2022-10-05T05:07:41.238Z,98841.44
2022-10-05T05:10:29.259Z,98834.53
2022-10-05T05:13:33.438Z,98842.56
2022-10-05T05:16:40.574Z,98844.25
2022-10-05T05:19:12.976Z,98805.06
2022-10-05T05:21:49.930Z,98820.69
2022-10-05T05:24:39.079Z,98811.00
2022-10-05T05:27:24.185Z,98817.94
2022-10-05T05:30:07.392Z,98818.19
2022-10-05T05:33:11.819Z,98829.34
2022-10-05T05:36:04.730Z,98840.72
2022-10-05T05:38:50.606Z,98835.94
2022-10-05T05:41:34.718Z,98826.53
2022-10-05T05:44:21.680Z,98837.63
2022-10-05T05:47:17.833Z,98846.09
2022-10-05T05:50:07.435Z,98863.53
2022-10-05T05:52:41.159Z,98875.31
2022-10-05T05:55:13.725Z,98886.19
2022-10-05T05:58:03.701Z,98896.69
2022-10-05T06:01:05.303Z,98881.97
2022-10-05T06:04:22.847Z,98872.41
2022-10-05T06:10:12.757Z,98920.59
2022-10-05T06:12:44.269Z,98853.75
2022-10-05T06:15:20.343Z,98918.16
2022-10-05T06:17:52.884Z,98887.38
2022-10-05T06:20:36.209Z,98905.88
2022-10-05T06:23:09.405Z,98944.88
2022-10-05T06:25:38.977Z,98957.56
2022-10-05T06:28:10.201Z,98970.03
2022-10-05T06:30:55.877Z,98965.34
2022-10-05T06:33:42.575Z,98940.50
2022-10-05T06:36:12.440Z,98887.06
2022-10-05T06:39:27.888Z,98950.25
2022-10-05T06:42:27.520Z,98907.41
2022-10-05T06:45:18.087Z,98954.44
2022-10-05T06:47:55.019Z,98959.78
2022-10-05T06:50:42.653Z,98956.59
2022-10-05T06:53:35.856Z,98970.38
2022-10-05T06:56:33.935Z,98952.84
2022-10-05T06:59:39.133Z,98886.25
2022-10-05T07:02:45.360Z,98958.16
2022-10-05T07:05:42.642Z,98965.47
2022-10-05T07:08:12.111Z,98970.19
2022-10-05T07:11:09.595Z,98913.78
2022-10-05T07:14:03.318Z,98969.91
2022-10-05T07:16:49.079Z,98959.03
2022-10-05T07:19:18.402Z,98968.50
2022-10-05T07:22:15.507Z,98945.88
2022-10-05T07:31:15.031Z,98972.00
2022-10-05T07:34:05.982Z,98954.81
2022-10-05T07:36:55.869Z,98976.88
2022-10-05T07:39:59.059Z,98947.59
2022-10-05T07:42:49.134Z,98976.81
2022-10-05T07:45:32.490Z,98930.41
2022-10-05T07:48:15.793Z,98944.38
2022-10-05T07:51:12.085Z,98988.88
2022-10-05T07:54:00.822Z,98943.03
2022-10-05T07:56:40.424Z,98925.44
2022-10-05T07:59:37.909Z,98924.22
2022-10-05T08:43:35.483Z,99084.38
2022-10-05T08:46:30.140Z,99097.28
2022-10-05T08:49:12.060Z,99090.41
2022-10-05T08:51:50.821Z,99026.69
2022-10-05T08:54:39.335Z,99089.09
2022-10-05T08:57:42.778Z,99101.75
2022-10-05T09:00:23.420Z,99098.50
2022-10-05T09:03:05.341Z,99052.59
2022-10-05T09:05:54.757Z,99119.13
2022-10-05T09:08:40.252Z,99133.16
2022-10-05T09:11:21.091Z,99095.38
2022-10-05T09:13:50.923Z,99096.59
2022-10-05T09:19:43.995Z,99138.22
2022-10-05T09:22:30.368Z,99135.19
2022-10-05T09:25:04.088Z,99134.97
2022-10-05T09:27:35.590Z,99124.91
2022-10-05T09:30:24.545Z,99134.13
2022-10-05T09:33:06.584Z,99140.09
2022-10-05T09:36:01.011Z,99157.59
2022-10-05T10:22:09.501Z,99177.44
2022-10-05T10:25:19.285Z,99143.38
2022-10-05T10:27:57.907Z,99167.13
2022-10-05T10:30:58.847Z,99174.03
2022-10-05T11:42:06.768Z,99232.38
2022-10-05T11:45:02.849Z,99232.69
2022-10-05T11:47:35.816Z,99202.63
2022-10-05T11:53:29.360Z,99239.09
2022-10-05T11:56:19.565Z,99217.19
2022-10-05T11:59:21.038Z,99243.00
2022-10-05T12:02:13.570Z,99244.66
2022-10-05T12:04:58.964Z,99235.09
2022-10-05T12:08:00.847Z,99230.38
2022-10-05T12:10:46.687Z,99231.69
2022-10-05T12:13:13.590Z,99221.63
2022-10-05T12:16:05.085Z,99229.44
2022-10-05T12:18:31.714Z,99231.88
2022-10-05T12:21:23.000Z,99227.78
2022-10-05T12:24:15.572Z,99214.66
2022-10-05T12:26:55.389Z,99206.00
2022-10-05T12:30:07.182Z,99204.75
2022-10-05T12:32:41.419Z,99211.09
2022-10-05T12:35:43.583Z,99213.31
2022-10-05T12:38:32.479Z,99221.28
2022-10-05T12:40:59.054Z,99216.78
2022-10-05T12:43:47.593Z,99220.34
2022-10-05T12:46:35.897Z,99211.13
2022-10-05T12:49:18.567Z,99203.59
2022-10-05T12:52:08.406Z,99213.13
2022-10-05T12:54:47.144Z,99215.34
2022-10-05T12:57:42.288Z,99218.56
2022-10-05T13:00:13.202Z,99209.84
2022-10-05T13:02:41.983Z,99230.19
2022-10-05T13:05:11.842Z,99236.16
2022-10-05T13:07:57.307Z,99227.97
2022-10-05T13:10:42.793Z,99240.75
2022-10-05T13:13:15.723Z,99239.69
2022-10-05T13:15:51.183Z,99241.41
2022-10-05T13:18:33.946Z,99230.50
2022-10-05T13:21:13.098Z,99240.59
2022-10-05T13:23:46.041Z,99243.00
2022-10-05T13:26:20.819Z,99205.63
2022-10-05T13:28:57.591Z,99246.78
2022-10-05T13:31:33.100Z,99215.31
2022-10-05T13:34:22.809Z,99241.19
2022-10-05T13:37:21.115Z,99214.13
2022-10-05T13:39:56.960Z,99231.03
2022-10-05T13:43:00.040Z,99240.72
2022-10-05T13:45:32.045Z,99184.94
2022-10-05T13:48:15.492Z,99238.44
2022-10-05T13:50:54.460Z,99215.91
2022-10-05T13:53:37.147Z,99246.34
2022-10-05T13:56:19.033Z,99237.28
2022-10-05T13:59:15.048Z,99233.88
2022-10-05T14:01:49.792Z,99210.91
2022-10-05T14:04:21.180Z,99202.28
2022-10-05T14:06:49.370Z,99237.53
2022-10-05T14:09:25.526Z,99239.28
2022-10-05T14:12:14.544Z,99196.28
2022-10-05T14:14:49.271Z,99213.91
2022-10-05T14:17:32.122Z,99239.25
2022-10-05T14:20:03.075Z,99192.59
2022-10-05T14:22:29.879Z,99219.31
2022-10-05T14:25:02.579Z,99234.50
2022-10-05T14:27:33.489Z,99260.84
2022-10-05T14:30:12.459Z,99268.88
2022-10-05T14:33:05.470Z,99250.44
2022-10-05T14:35:51.587Z,99274.84
2022-10-05T14:38:29.964Z,99239.41
2022-10-05T14:41:04.138Z,99253.28
2022-10-05T14:43:31.272Z,99214.50
2022-10-05T14:46:05.211Z,99267.31
2022-10-05T14:48:43.830Z,99269.94
2022-10-05T14:51:14.047Z,99209.03
2022-10-05T14:53:56.074Z,99242.25
2022-10-05T14:56:41.615Z,99278.19
2022-10-05T14:59:11.460Z,99280.97
2022-10-05T15:01:51.357Z,99245.63
2022-10-05T15:04:30.633Z,99288.88
2022-10-05T15:07:23.045Z,99276.78
2022-10-05T15:10:22.720Z,99287.94
2022-10-05T15:12:52.058Z,99278.31
2022-10-05T15:15:34.664Z,99300.59
2022-10-05T15:18:06.662Z,99274.59
2022-10-05T15:20:46.801Z,99307.19
2022-10-05T15:23:23.860Z,99311.78
2022-10-05T15:26:01.351Z,99278.66
2022-10-05T15:28:48.533Z,99315.09
2022-10-05T15:31:42.078Z,99320.88
2022-10-05T15:34:41.596Z,99326.84
2022-10-05T15:37:26.332Z,99293.53
2022-10-05T15:39:57.224Z,99300.56
2022-10-05T15:42:43.301Z,99309.25
2022-10-05T15:45:32.614Z,99342.44
2022-10-05T15:48:05.553Z,99341.34
2022-10-05T15:50:42.196Z,99342.75
2022-10-05T15:53:17.654Z,99346.72
2022-10-05T15:56:03.950Z,99302.50
2022-10-05T15:58:33.690Z,99341.56
2022-10-05T16:01:20.580Z,99358.28
2022-10-05T16:03:58.052Z,99302.69
2022-10-05T16:06:49.697Z,99326.41
2022-10-05T16:09:43.302Z,99365.81
2022-10-05T16:12:48.654Z,99366.22
2022-10-05T16:15:26.419Z,99337.16
2022-10-05T16:18:40.769Z,99352.06
2022-10-05T16:21:09.748Z,99368.97
2022-10-05T16:23:52.384Z,99368.47
2022-10-05T16:26:38.720Z,99386.03
2022-10-05T16:29:17.610Z,99379.31
2022-10-05T16:32:12.801Z,99311.13
2022-10-05T16:35:15.141Z,99401.59
2022-10-05T16:37:48.842Z,99378.94
2022-10-05T16:41:01.058Z,99405.75
2022-10-05T16:43:49.996Z,99349.72
2022-10-05T16:46:36.981Z,99411.63
2022-10-05T16:49:30.419Z,99384.50
2022-10-05T16:51:59.271Z,99423.72
2022-10-05T16:54:47.703Z,99433.41
2022-10-05T16:57:25.567Z,99399.88
2022-10-05T17:00:04.333Z,99446.44
2022-10-05T17:03:03.544Z,99452.75
2022-10-05T17:05:55.864Z,99462.72
2022-10-05T17:08:49.891Z,99469.56
2022-10-05T17:11:22.816Z,99415.31
2022-10-05T17:14:19.020Z,99485.66
2022-10-05T17:17:00.375Z,99478.69
2022-10-05T17:20:07.186Z,99493.22
2022-10-05T17:22:39.982Z,99438.03
2022-10-05T17:25:16.234Z,99429.00
2022-10-05T17:28:15.185Z,99487.53
2022-10-05T17:30:54.328Z,99499.31
2022-10-05T17:33:31.872Z,99506.25
2022-10-05T17:36:06.428Z,99522.53
2022-10-05T17:38:36.188Z,99504.44
2022-10-05T17:41:13.503Z,99523.59
2022-10-05T17:43:45.358Z,99521.47
2022-10-05T17:46:12.857Z,99521.22
2022-10-05T17:48:44.993Z,99493.94
2022-10-05T17:51:48.576Z,99526.28
2022-10-05T17:54:48.193Z,99513.94
2022-10-05T17:57:28.093Z,99494.63
2022-10-05T17:59:57.773Z,99550.81
2022-10-05T18:02:42.767Z,99426.91
2022-10-05T18:05:12.666Z,99557.97
2022-10-05T18:07:42.016Z,99563.00
2022-10-05T18:10:13.053Z,99574.28
2022-10-05T18:12:46.121Z,99432.16
2022-10-05T18:15:37.962Z,99534.25
2022-10-05T18:18:43.484Z,99462.97
2022-10-05T18:21:24.626Z,99531.09
2022-10-05T18:23:54.674Z,99540.38
2022-10-05T18:26:24.500Z,99598.50
2022-10-05T18:29:44.372Z,99599.75
2022-10-05T18:32:43.421Z,99550.66
2022-10-05T18:35:20.437Z,99507.00
2022-10-05T18:41:24.968Z,99582.88
2022-10-05T18:44:00.950Z,99586.44
2022-10-05T18:46:35.929Z,99588.03
2022-10-05T18:49:29.013Z,99498.19
2022-10-05T18:52:09.940Z,99598.03
2022-10-05T18:55:21.933Z,99591.28
2022-10-05T18:58:04.183Z,99617.78
2022-10-05T19:00:53.001Z,99621.63
2022-10-05T19:03:43.485Z,99627.31
2022-10-05T19:06:27.026Z,99617.00
2022-10-05T19:09:14.512Z,99617.91
2022-10-05T19:12:14.377Z,99623.97
2022-10-05T19:15:09.174Z,99650.56
2022-10-05T19:17:48.108Z,99609.34
2022-10-05T19:20:25.878Z,99628.88
2022-10-05T19:22:52.750Z,99658.06
2022-10-05T19:25:19.409Z,99629.75
2022-10-05T19:28:00.735Z,99663.25
2022-10-05T19:30:57.759Z,99675.88
2022-10-05T19:33:29.166Z,99675.34
2022-10-05T19:36:08.251Z,99644.13
2022-10-05T19:38:58.627Z,99621.25
2022-10-05T19:41:43.904Z,99606.06
2022-10-05T19:44:16.702Z,99663.16
2022-10-05T19:46:53.571Z,99708.09
2022-10-05T19:49:46.518Z,99699.63
2022-10-05T19:52:44.224Z,99663.81
2022-10-05T19:55:31.329Z,99673.63
2022-10-05T19:58:02.788Z,99699.03
2022-10-05T20:00:35.487Z,99719.06
2022-10-05T20:03:16.885Z,99707.63
2022-10-05T20:05:44.350Z,99698.34
2022-10-05T20:08:17.239Z,99709.66
2022-10-05T20:10:45.323Z,99752.00
2022-10-05T20:13:21.270Z,99747.06
2022-10-05T20:16:35.827Z,99738.97
2022-10-05T20:19:24.460Z,99747.25
2022-10-05T20:22:04.523Z,99715.31
2022-10-05T20:24:49.961Z,99734.09
2022-10-05T20:27:49.219Z,99769.31
2022-10-05T20:30:18.426Z,99763.56
2022-10-05T20:32:50.124Z,99765.38
2022-10-05T20:35:22.274Z,99769.44
2022-10-05T20:37:50.104Z,99744.59
2022-10-05T20:40:18.859Z,99725.41
2022-10-05T20:42:45.946Z,99723.41
2022-10-05T20:45:13.596Z,99751.50
2022-10-05T20:47:40.671Z,99748.13
2022-10-05T20:50:09.637Z,99738.09
2022-10-05T20:52:40.190Z,99740.53
2022-10-05T20:55:10.015Z,99750.94
2022-10-05T20:57:42.148Z,99725.47
2022-10-05T21:00:12.893Z,99750.81
2022-10-05T21:02:39.650Z,99788.06
2022-10-05T21:05:07.732Z,99786.13
2022-10-05T21:07:34.607Z,99797.66
2022-10-05T21:10:02.457Z,99794.19
2022-10-05T21:12:29.191Z,99793.44
2022-10-05T21:14:55.854Z,99820.28
2022-10-05T21:17:22.545Z,99837.75
2022-10-05T21:19:49.344Z,99827.44
2022-10-05T21:22:16.081Z,99821.25
2022-10-05T21:24:42.761Z,99825.47
2022-10-05T21:27:10.299Z,99855.38
2022-10-05T21:29:37.346Z,99837.34
2022-10-05T21:32:08.739Z,99841.59
2022-10-05T21:34:35.579Z,99853.72
2022-10-05T21:37:02.223Z,99849.06
2022-10-05T21:39:28.960Z,99834.06
2022-10-05T21:41:56.379Z,99829.91
2022-10-05T21:44:23.051Z,99830.38
2022-10-05T21:46:49.872Z,99841.63
2022-10-05T21:49:19.549Z,99848.97
2022-10-05T21:51:47.347Z,99898.19
2022-10-05T21:54:17.480Z,99858.00
2022-10-05T21:56:51.048Z,99876.28
2022-10-05T21:59:20.546Z,99892.25
2022-10-05T22:01:47.405Z,99882.25
2022-10-05T22:04:15.160Z,99927.03
2022-10-05T22:06:41.884Z,99922.75
2022-10-05T22:09:08.624Z,99912.81
2022-10-05T22:11:35.331Z,99935.19
2022-10-05T22:14:04.791Z,99943.44
2022-10-05T22:16:37.455Z,99961.75
2022-10-05T22:19:05.940Z,99923.28
2022-10-05T22:21:37.940Z,99962.53
2022-10-05T22:24:04.977Z,99943.31
2022-10-05T22:26:31.904Z,99947.56
2022-10-05T22:28:58.803Z,99971.13
2022-10-05T22:31:25.561Z,99903.78
2022-10-05T22:33:52.366Z,99928.34
2022-10-05T22:36:19.561Z,99920.53
2022-10-05T22:38:47.681Z,99979.53
2022-10-05T22:41:18.467Z,99985.78
2022-10-05T22:43:48.791Z,99958.63
2022-10-05T22:46:16.088Z,99963.78
2022-10-05T22:48:43.305Z,99993.13
2022-10-05T22:51:10.216Z,99940.34
2022-10-05T22:53:37.016Z,99963.53
2022-10-05T22:56:06.301Z,99986.41
2022-10-05T22:58:33.018Z,99981.09
2022-10-05T23:01:12.509Z,99991.19
2022-10-05T23:03:39.816Z,99981.56
2022-10-05T23:06:09.672Z,99991.56
2022-10-05T23:08:37.896Z,99976.78
2022-10-05T23:11:08.598Z,100009.19
2022-10-05T23:13:35.804Z,100013.03
2022-10-05T23:16:14.311Z,99960.66
2022-10-05T23:18:42.412Z,100014.59
2022-10-05T23:21:10.706Z,99991.47
2022-10-05T23:23:43.111Z,100021.06
2022-10-05T23:26:11.562Z,100027.59
2022-10-05T23:28:47.272Z,100007.97
2022-10-05T23:31:16.806Z,100011.63
2022-10-05T23:33:43.895Z,100031.28
2022-10-05T23:36:22.245Z,100004.97
2022-10-05T23:38:49.606Z,100046.38
2022-10-05T23:41:17.430Z,100057.03
2022-10-05T23:43:44.110Z,100035.13
2022-10-05T23:46:10.967Z,100047.13
2022-10-05T23:48:38.348Z,100058.03
2022-10-05T23:51:06.836Z,100042.97
2022-10-05T23:53:34.113Z,100068.41
2022-10-05T23:56:01.008Z,100027.19
2022-10-05T23:58:28.059Z,100066.00
